createdAt,value
2022-09-17T00:01:34.900Z,1.90
2022-09-17T00:04:04.654Z,2.45
2022-09-17T00:06:35.818Z,2.20
2022-09-17T00:09:07.506Z,2.30
2022-09-17T00:11:40.517Z,1.90
2022-09-17T00:14:14.377Z,1.90
2022-09-17T00:16:45.185Z,2.00
2022-09-17T00:19:21.109Z,1.80
2022-09-17T00:21:48.665Z,2.72
2022-09-17T00:24:17.572Z,2.30
2022-09-17T00:26:49.454Z,2.20
2022-09-17T00:29:16.802Z,2.38
2022-09-17T00:31:47.445Z,2.10
2022-09-17T00:34:14.685Z,2.13
2022-09-17T00:36:42.176Z,2.40
2022-09-17T00:39:12.240Z,2.13
2022-09-17T00:41:39.858Z,1.88
2022-09-17T00:44:40.311Z,2.22
2022-09-17T00:47:23.419Z,2.55
2022-09-17T00:50:01.247Z,2.22
2022-09-17T00:53:05.355Z,2.10
2022-09-17T00:58:18.912Z,1.92
2022-09-17T01:00:49.709Z,2.00
2022-09-17T01:03:17.285Z,1.95
2022-09-17T01:06:21.253Z,2.55
2022-09-17T01:08:59.956Z,1.77
2022-09-17T01:12:15.633Z,2.75
2022-09-17T01:15:15.336Z,2.47
2022-09-17T01:18:11.784Z,2.10
2022-09-17T01:20:57.335Z,2.03
2022-09-17T01:23:46.163Z,2.28
2022-09-17T01:26:28.044Z,2.28
2022-09-17T01:29:39.370Z,2.53
2022-09-17T01:32:20.277Z,2.30
2022-09-17T01:35:22.315Z,2.17
2022-09-17T01:38:15.795Z,2.33
2022-09-17T01:41:33.382Z,2.28
2022-09-17T01:44:18.754Z,2.05
2022-09-17T01:47:03.323Z,2.85
2022-09-17T01:49:35.738Z,2.42
2022-09-17T01:52:04.176Z,2.80
2022-09-17T01:54:42.523Z,2.72
2022-09-17T01:57:28.318Z,2.75
2022-09-17T02:00:12.473Z,2.53
2022-09-17T02:03:10.729Z,2.80
2022-09-17T02:05:57.678Z,2.80
2022-09-17T02:08:42.241Z,2.50
2022-09-17T02:11:16.753Z,2.70
2022-09-17T02:14:21.468Z,2.78
2022-09-17T02:16:59.880Z,2.15
2022-09-17T02:19:38.112Z,2.42
2022-09-17T02:22:52.712Z,2.75
2022-09-17T02:25:44.302Z,3.38
2022-09-17T02:28:41.700Z,2.53
2022-09-17T02:31:12.456Z,2.60
2022-09-17T02:33:43.930Z,2.67
2022-09-17T02:36:11.625Z,2.70
2022-09-17T02:38:43.582Z,2.50
2022-09-17T02:41:31.488Z,3.00
2022-09-17T02:44:31.875Z,2.83
2022-09-17T02:47:58.996Z,3.10
2022-09-17T02:51:12.807Z,2.53
2022-09-17T02:54:16.731Z,2.55
2022-09-17T02:56:57.204Z,2.50
2022-09-17T02:59:43.810Z,2.75
2022-09-17T03:02:25.743Z,2.45
2022-09-17T03:04:55.305Z,2.50
2022-09-17T03:07:23.159Z,2.72
2022-09-17T03:09:50.333Z,2.40
2022-09-17T03:12:17.610Z,2.47
2022-09-17T03:14:44.860Z,2.58
2022-09-17T03:17:12.313Z,2.53
2022-09-17T03:19:39.339Z,2.33
2022-09-17T03:22:06.454Z,2.65
2022-09-17T03:24:36.733Z,2.78
2022-09-17T03:27:04.560Z,2.22
2022-09-17T03:29:31.795Z,2.15
2022-09-17T03:31:59.367Z,2.35
2022-09-17T03:34:27.108Z,2.20
2022-09-17T03:36:54.229Z,2.65
2022-09-17T03:39:21.715Z,2.50
2022-09-17T03:41:49.207Z,2.00
2022-09-17T03:44:23.849Z,2.10
2022-09-17T03:46:51.622Z,2.22
2022-09-17T03:49:18.953Z,2.17
2022-09-17T03:51:46.042Z,2.00
2022-09-17T03:54:13.132Z,2.17
2022-09-17T03:56:43.536Z,2.13
2022-09-17T03:59:11.618Z,2.38
2022-09-17T04:01:38.910Z,2.08
2022-09-17T04:04:06.747Z,2.10
2022-09-17T04:06:34.049Z,2.28
2022-09-17T04:09:01.239Z,2.58
2022-09-17T04:11:28.496Z,2.70
2022-09-17T04:13:55.664Z,4.63
2022-09-17T04:16:23.001Z,3.10
2022-09-17T04:18:53.464Z,4.03
2022-09-17T04:21:20.651Z,3.40
2022-09-17T04:23:51.278Z,2.67
2022-09-17T04:26:18.905Z,2.72
2022-09-17T04:28:46.058Z,2.35
2022-09-17T04:31:16.194Z,2.17
2022-09-17T04:33:43.481Z,2.58
2022-09-17T04:36:10.559Z,2.63
2022-09-17T04:38:37.728Z,2.67
2022-09-17T04:41:08.037Z,2.97
2022-09-17T04:43:35.603Z,2.70
2022-09-17T04:46:02.672Z,2.78
2022-09-17T04:48:29.837Z,2.97
2022-09-17T04:51:00.325Z,3.20
2022-09-17T04:53:27.493Z,3.22
2022-09-17T04:55:54.685Z,3.13
2022-09-17T04:58:21.828Z,2.65
2022-09-17T05:00:52.310Z,3.00
2022-09-17T05:03:19.374Z,3.00
2022-09-17T05:05:46.662Z,2.90
2022-09-17T05:08:13.752Z,4.47
2022-09-17T05:10:41.067Z,3.00
2022-09-17T05:13:08.605Z,3.17
2022-09-17T05:15:35.661Z,3.10
2022-09-17T05:18:03.017Z,3.70
2022-09-17T05:20:33.250Z,3.80
2022-09-17T05:23:00.445Z,3.85
2022-09-17T05:25:30.980Z,3.80
2022-09-17T05:27:58.296Z,3.28
2022-09-17T05:30:25.893Z,4.13
2022-09-17T05:33:05.792Z,4.10
2022-09-17T05:35:35.974Z,3.63
2022-09-17T05:38:05.980Z,3.60
2022-09-17T05:40:33.315Z,3.83
2022-09-17T05:43:06.308Z,3.35
2022-09-17T05:45:35.009Z,3.47
2022-09-17T05:48:04.063Z,3.30
2022-09-17T05:50:33.933Z,3.78
2022-09-17T05:53:11.537Z,3.50
2022-09-17T05:55:39.181Z,3.58
2022-09-17T05:58:14.646Z,3.00
2022-09-17T06:00:48.058Z,3.10
2022-09-17T06:03:19.185Z,3.25
2022-09-17T06:06:00.780Z,3.50
2022-09-17T06:08:29.420Z,3.30
2022-09-17T06:11:01.533Z,3.25
2022-09-17T06:13:29.510Z,3.20
2022-09-17T06:15:56.645Z,3.10
2022-09-17T06:18:24.135Z,3.00
2022-09-17T06:20:56.565Z,3.00
2022-09-17T06:23:24.399Z,2.67
2022-09-17T06:26:00.097Z,2.90
2022-09-17T06:30:57.206Z,2.67
2022-09-17T06:33:24.436Z,2.88
2022-09-17T06:36:02.907Z,2.58
2022-09-17T06:38:36.100Z,2.53
2022-09-17T06:41:07.557Z,2.80
2022-09-17T06:43:34.835Z,2.60
2022-09-17T06:46:09.397Z,3.03
2022-09-17T06:48:43.183Z,2.25
2022-09-17T06:51:11.693Z,1.90
2022-09-17T06:53:39.591Z,2.47
2022-09-17T06:56:08.641Z,1.85
2022-09-17T06:58:37.481Z,1.98
2022-09-17T07:01:06.135Z,2.17
2022-09-17T07:03:34.304Z,2.40
2022-09-17T07:06:01.549Z,1.90
2022-09-17T07:08:29.226Z,1.73
2022-09-17T07:10:58.327Z,2.50
2022-09-17T07:13:26.286Z,2.10
2022-09-17T07:15:59.791Z,1.75
2022-09-17T07:18:27.921Z,1.90
2022-09-17T07:21:05.432Z,2.25
2022-09-17T07:23:35.725Z,2.17
2022-09-17T07:26:12.268Z,1.90
2022-09-17T07:28:40.925Z,1.77
2022-09-17T07:31:12.426Z,1.98
2022-09-17T07:33:41.236Z,1.60
2022-09-17T07:36:13.108Z,1.88
2022-09-17T07:38:40.370Z,1.60
2022-09-17T07:41:14.041Z,2.10
2022-09-17T07:43:42.590Z,1.65
2022-09-17T07:46:18.632Z,1.80
2022-09-17T07:48:46.987Z,2.10
2022-09-17T07:51:23.273Z,2.03
2022-09-17T07:53:55.952Z,2.17
2022-09-17T07:56:24.138Z,1.90
2022-09-17T07:58:51.675Z,2.00
2022-09-17T08:01:22.815Z,2.13
2022-09-17T08:03:53.792Z,2.22
2022-09-17T08:06:26.148Z,2.15
2022-09-17T08:08:53.902Z,2.13
2022-09-17T08:11:51.610Z,2.55
2022-09-17T08:14:15.327Z,1.98
2022-09-17T08:16:42.992Z,2.00
2022-09-17T08:19:11.039Z,1.98
2022-09-17T08:21:38.156Z,2.05
2022-09-17T08:24:05.449Z,2.20
2022-09-17T08:26:32.795Z,1.80
2022-09-17T08:29:02.648Z,2.15
2022-09-17T08:31:30.794Z,1.55
2022-09-17T08:33:58.010Z,1.70
2022-09-17T08:36:28.703Z,1.48
2022-09-17T08:38:58.762Z,1.40
2022-09-17T08:42:03.421Z,1.48
2022-09-17T08:44:43.094Z,1.17
2022-09-17T08:47:31.106Z,1.30
2022-09-17T08:50:19.230Z,1.13
2022-09-17T08:52:54.918Z,1.33
2022-09-17T08:55:43.769Z,1.00
2022-09-17T08:58:52.685Z,1.40
2022-09-17T09:02:00.846Z,1.20
2022-09-17T09:04:42.135Z,0.90
2022-09-17T09:07:29.061Z,0.82
2022-09-17T09:10:23.392Z,0.60
2022-09-17T09:12:52.963Z,0.80
2022-09-17T09:15:48.913Z,0.60
2022-09-17T09:18:30.457Z,0.88
2022-09-17T09:21:22.534Z,0.80
2022-09-17T09:24:16.295Z,1.02
2022-09-17T09:26:45.153Z,0.80
2022-09-17T09:29:46.223Z,1.00
2022-09-17T09:32:27.688Z,0.85
2022-09-17T09:34:56.264Z,0.73
2022-09-17T09:37:32.743Z,1.25
2022-09-17T09:40:45.814Z,1.00
2022-09-17T09:44:04.002Z,0.98
2022-09-17T09:46:57.822Z,0.73
2022-09-17T09:50:08.239Z,1.00
2022-09-17T09:53:05.281Z,1.00
2022-09-17T09:56:15.056Z,0.77
2022-09-17T09:58:43.132Z,1.35
2022-09-17T10:01:22.254Z,1.02
2022-09-17T10:03:52.674Z,1.05
2022-09-17T10:06:20.900Z,0.90
2022-09-17T10:08:57.343Z,0.77
2022-09-17T10:11:30.673Z,0.85
2022-09-17T10:14:25.580Z,0.93
2022-09-17T10:17:24.100Z,1.08
2022-09-17T10:20:00.247Z,0.90
2022-09-17T10:22:46.403Z,1.23
2022-09-17T10:25:34.879Z,1.20
2022-09-17T10:28:21.320Z,0.70
2022-09-17T10:31:10.727Z,1.13
2022-09-17T10:34:04.576Z,0.85
2022-09-17T10:36:38.265Z,1.05
2022-09-17T10:39:27.039Z,0.93
2022-09-17T10:42:05.691Z,1.30
2022-09-17T10:44:38.553Z,0.70
2022-09-17T10:47:17.952Z,1.30
2022-09-17T10:49:55.231Z,1.00
2022-09-17T10:52:46.822Z,1.17
2022-09-17T10:55:35.132Z,1.00
2022-09-17T10:58:09.951Z,1.27
2022-09-17T11:01:33.783Z,1.00
2022-09-17T11:04:29.808Z,1.40
2022-09-17T11:07:41.171Z,0.85
2022-09-17T11:10:33.141Z,0.95
2022-09-17T11:13:22.271Z,0.90
2022-09-17T11:16:33.054Z,0.80
2022-09-17T11:19:21.097Z,1.17
2022-09-17T11:22:35.941Z,1.00
2022-09-17T11:25:46.376Z,1.10
2022-09-17T11:28:57.774Z,1.10
2022-09-17T11:32:14.341Z,0.82
2022-09-17T11:35:03.693Z,0.90
2022-09-17T11:37:43.573Z,1.33
2022-09-17T11:40:26.053Z,1.27
2022-09-17T11:43:28.697Z,1.08
2022-09-17T11:46:14.880Z,0.85
2022-09-17T11:49:05.241Z,1.00
2022-09-17T11:51:49.755Z,1.20
2022-09-17T11:54:33.784Z,1.25
2022-09-17T11:57:45.590Z,1.10
2022-09-17T12:00:18.751Z,1.33
2022-09-17T12:03:13.735Z,1.02
2022-09-17T12:05:46.257Z,1.48
2022-09-17T12:08:50.120Z,1.25
2022-09-17T12:11:33.319Z,1.33
2022-09-17T12:14:17.874Z,1.02
2022-09-17T12:16:51.078Z,1.50
2022-09-17T12:19:43.110Z,1.20
2022-09-17T12:22:21.330Z,1.38
2022-09-17T12:24:54.520Z,1.27
2022-09-17T12:27:58.285Z,1.38
2022-09-17T12:30:34.904Z,1.38
2022-09-17T12:33:24.322Z,1.45
2022-09-17T12:36:32.736Z,1.00
2022-09-17T12:39:54.419Z,1.38
2022-09-17T12:42:52.086Z,1.40
2022-09-17T12:45:43.967Z,1.42
2022-09-17T12:48:41.231Z,1.27
2022-09-17T12:51:42.605Z,1.13
2022-09-17T12:54:31.067Z,1.48
2022-09-17T12:57:24.963Z,1.23
2022-09-17T13:00:14.108Z,1.40
2022-09-17T13:03:07.524Z,1.23
2022-09-17T13:06:37.181Z,1.08
2022-09-17T13:09:51.926Z,2.40
2022-09-17T13:12:39.943Z,1.73
2022-09-17T13:15:43.719Z,1.20
2022-09-17T13:18:36.967Z,1.45
2022-09-17T13:21:13.368Z,1.20
2022-09-17T13:23:48.053Z,1.45
2022-09-17T13:26:20.438Z,1.20
2022-09-17T13:28:50.641Z,1.80
2022-09-17T13:31:44.709Z,1.17
2022-09-17T13:34:18.112Z,1.15
2022-09-17T13:36:54.823Z,1.30
2022-09-17T13:39:48.106Z,1.45
2022-09-17T13:42:30.357Z,1.23
2022-09-17T13:45:22.795Z,1.23
2022-09-17T13:47:57.962Z,1.48
2022-09-17T13:50:31.156Z,1.17
2022-09-17T13:53:25.126Z,1.13
2022-09-17T13:56:06.732Z,1.52
2022-09-17T13:58:36.504Z,1.20
2022-09-17T14:01:14.750Z,1.25
2022-09-17T14:03:44.239Z,1.30
2022-09-17T14:06:23.088Z,1.17
2022-09-17T14:08:51.953Z,1.38
2022-09-17T14:11:32.343Z,1.20
2022-09-17T14:14:05.378Z,1.10
2022-09-17T14:16:42.741Z,1.33
2022-09-17T14:19:15.640Z,1.23
2022-09-17T14:22:06.107Z,1.00
2022-09-17T14:24:52.547Z,1.10
2022-09-17T14:30:29.205Z,1.30
2022-09-17T14:33:12.029Z,1.10
2022-09-17T14:35:47.995Z,1.10
2022-09-17T14:38:45.556Z,1.13
2022-09-17T14:41:13.063Z,1.20
2022-09-17T14:43:55.030Z,1.60
2022-09-17T14:46:30.708Z,0.80
2022-09-17T14:49:27.332Z,1.05
2022-09-17T14:51:56.999Z,1.33
2022-09-17T14:54:32.357Z,1.60
2022-09-17T14:57:28.947Z,0.98
2022-09-17T15:00:00.656Z,1.00
2022-09-17T15:02:43.441Z,1.33
2022-09-17T15:05:23.642Z,0.98
2022-09-17T15:07:50.952Z,1.10
2022-09-17T15:10:22.786Z,0.88
2022-09-17T15:12:51.408Z,0.98
2022-09-17T15:15:23.600Z,1.10
2022-09-17T15:17:52.091Z,1.33
2022-09-17T15:20:24.989Z,1.30
2022-09-17T15:23:25.678Z,1.30
2022-09-17T15:25:57.731Z,1.30
2022-09-17T15:28:39.289Z,1.10
2022-09-17T15:31:18.510Z,1.00
2022-09-17T15:33:47.292Z,0.98
2022-09-17T15:36:27.536Z,0.82
2022-09-17T15:38:54.966Z,1.13
2022-09-17T15:41:33.538Z,1.00
2022-09-17T15:44:31.470Z,0.93
2022-09-17T15:47:52.476Z,1.02
2022-09-17T15:50:49.634Z,0.70
2022-09-17T15:53:26.681Z,0.43
2022-09-17T15:56:15.273Z,0.55
2022-09-17T15:58:42.512Z,0.77
2022-09-17T16:01:18.412Z,0.63
2022-09-17T16:04:19.146Z,0.52
2022-09-17T16:07:12.622Z,0.55
2022-09-17T16:09:47.940Z,0.90
2022-09-17T16:12:22.544Z,0.77
2022-09-17T16:14:55.294Z,0.52
2022-09-17T16:17:28.255Z,1.05
2022-09-17T16:19:56.853Z,0.57
2022-09-17T16:22:24.447Z,0.40
2022-09-17T16:24:54.253Z,0.70
2022-09-17T16:27:30.165Z,0.38
2022-09-17T16:30:06.012Z,0.45
2022-09-17T16:35:00.223Z,0.35
2022-09-17T16:37:27.410Z,0.30
2022-09-17T16:39:57.509Z,0.38
2022-09-17T16:42:31.825Z,0.20
2022-09-17T16:45:01.115Z,0.50
2022-09-17T16:47:38.691Z,0.82
2022-09-17T16:50:09.951Z,0.55
2022-09-17T16:52:37.410Z,0.70
2022-09-17T16:55:08.985Z,0.50
2022-09-17T16:57:36.583Z,0.50
2022-09-17T17:00:07.544Z,0.30
2022-09-17T17:02:37.237Z,0.40
2022-09-17T17:05:05.360Z,0.40
2022-09-17T17:07:32.521Z,0.52
2022-09-17T17:10:00.373Z,0.47
2022-09-17T17:12:27.856Z,0.57
2022-09-17T17:14:55.122Z,0.40
2022-09-17T17:17:22.245Z,0.70
2022-09-17T17:19:49.502Z,0.50
2022-09-17T17:22:16.720Z,0.50
2022-09-17T17:24:43.900Z,0.50
2022-09-17T17:27:11.593Z,0.50
2022-09-17T17:29:38.674Z,0.43
2022-09-17T17:32:06.339Z,0.50
2022-09-17T17:34:34.511Z,0.60
2022-09-17T17:37:01.883Z,0.60
2022-09-17T17:39:31.930Z,0.50
2022-09-17T17:41:59.096Z,0.73
2022-09-17T17:44:28.945Z,0.75
2022-09-17T17:46:56.161Z,0.80
2022-09-17T17:49:23.252Z,0.60
2022-09-17T17:51:50.747Z,0.90
2022-09-17T17:54:17.755Z,0.55
2022-09-17T17:56:44.937Z,0.88
2022-09-17T17:59:12.042Z,0.68
2022-09-17T18:01:39.467Z,0.77
2022-09-17T18:04:09.834Z,0.68
2022-09-17T18:06:37.069Z,0.63
2022-09-17T18:09:05.284Z,0.77
2022-09-17T18:11:34.042Z,0.80
2022-09-17T18:14:01.971Z,0.90
2022-09-17T18:16:29.892Z,1.63
2022-09-17T18:19:00.998Z,0.75
2022-09-17T18:21:31.704Z,0.95
2022-09-17T18:23:59.069Z,1.23
2022-09-17T18:26:28.500Z,0.77
2022-09-17T18:28:56.150Z,0.70
2022-09-17T18:31:32.503Z,0.80
2022-09-17T18:34:07.958Z,1.25
2022-09-17T18:36:36.830Z,0.65
2022-09-17T18:39:33.171Z,0.90
2022-09-17T18:41:54.222Z,0.80
2022-09-17T18:44:22.368Z,0.85
2022-09-17T18:46:51.449Z,1.17
2022-09-17T18:49:19.283Z,1.05
2022-09-17T18:51:46.570Z,0.75
2022-09-17T18:54:13.969Z,0.90
2022-09-17T18:56:41.920Z,1.25
2022-09-17T18:59:10.463Z,0.90
2022-09-17T19:01:37.686Z,0.90
2022-09-17T19:04:07.718Z,1.13
2022-09-17T19:06:35.130Z,0.98
2022-09-17T19:09:06.453Z,1.02
2022-09-17T19:11:37.184Z,1.15
2022-09-17T19:14:04.561Z,0.90
2022-09-17T19:16:32.239Z,1.30
2022-09-17T19:18:59.446Z,1.10
2022-09-17T19:21:26.712Z,1.02
2022-09-17T19:23:54.234Z,1.05
2022-09-17T19:26:27.169Z,1.00
2022-09-17T19:28:58.448Z,1.00
2022-09-17T19:31:27.023Z,1.40
2022-09-17T19:33:59.035Z,0.80
2022-09-17T19:36:28.910Z,1.58
2022-09-17T19:38:58.561Z,1.02
2022-09-17T19:41:25.799Z,1.40
2022-09-17T19:43:57.218Z,1.10
2022-09-17T19:46:26.477Z,1.40
2022-09-17T19:48:57.159Z,1.48
2022-09-17T19:51:26.673Z,1.30
2022-09-17T19:53:54.232Z,1.10
2022-09-17T19:56:27.586Z,1.55
2022-09-17T19:58:54.847Z,1.33
2022-09-17T20:01:21.939Z,1.42
2022-09-17T20:03:49.288Z,1.48
2022-09-17T20:06:18.832Z,1.15
2022-09-17T20:08:51.783Z,1.60
2022-09-17T20:11:20.891Z,2.10
2022-09-17T20:13:48.561Z,1.70
2022-09-17T20:16:20.948Z,1.77
2022-09-17T20:18:49.863Z,2.10
2022-09-17T20:21:21.399Z,2.10
2022-09-17T20:23:49.178Z,1.30
2022-09-17T20:26:17.425Z,1.42
2022-09-17T20:28:45.404Z,1.90
2022-09-17T20:31:23.056Z,2.05
2022-09-17T20:33:56.614Z,1.27
2022-09-17T20:36:27.909Z,1.50
2022-09-17T20:39:21.037Z,1.50
2022-09-17T20:41:45.697Z,1.75
2022-09-17T20:44:13.023Z,1.60
2022-09-17T20:46:40.682Z,1.25
2022-09-17T20:49:11.290Z,0.90
2022-09-17T20:51:38.397Z,1.50
2022-09-17T20:54:10.031Z,1.20
2022-09-17T20:56:37.128Z,1.10
2022-09-17T20:59:24.925Z,1.15
2022-09-17T21:01:53.647Z,0.98
2022-09-17T21:04:22.040Z,1.00
2022-09-17T21:06:52.971Z,1.10
2022-09-17T21:09:20.237Z,1.08
2022-09-17T21:11:49.432Z,1.63
2022-09-17T21:14:18.218Z,0.90
2022-09-17T21:16:49.034Z,1.40
2022-09-17T21:19:16.627Z,0.80
2022-09-17T21:21:47.988Z,1.05
2022-09-17T21:24:15.530Z,0.90
2022-09-17T21:26:42.598Z,1.05
2022-09-17T21:29:09.750Z,1.00
2022-09-17T21:31:37.927Z,1.38
2022-09-17T21:34:10.579Z,1.08
2022-09-17T21:36:39.984Z,1.23
2022-09-17T21:39:14.257Z,0.85
2022-09-17T21:41:43.262Z,1.10
2022-09-17T21:44:14.887Z,0.80
2022-09-17T21:46:43.290Z,0.93
2022-09-17T21:49:14.020Z,0.90
2022-09-17T21:51:44.700Z,0.90
2022-09-17T21:54:17.081Z,0.98
2022-09-17T21:56:45.783Z,1.20
2022-09-17T21:59:15.344Z,1.25
2022-09-17T22:01:47.071Z,1.10
2022-09-17T22:04:18.051Z,0.82
2022-09-17T22:06:46.440Z,0.93
2022-09-17T22:09:21.267Z,0.80
2022-09-17T22:11:49.119Z,1.48
2022-09-17T22:14:20.170Z,1.10
2022-09-17T22:16:57.065Z,0.80
2022-09-17T22:19:27.608Z,0.98
2022-09-17T22:21:56.081Z,0.70
2022-09-17T22:24:24.599Z,1.08
2022-09-17T22:26:57.208Z,0.90
2022-09-17T22:29:25.722Z,0.93
2022-09-17T22:31:57.304Z,0.85
2022-09-17T22:34:25.937Z,0.55
2022-09-17T22:36:53.254Z,0.80
2022-09-17T22:39:23.335Z,0.90
2022-09-17T22:41:51.100Z,1.00
2022-09-17T22:44:20.216Z,0.80
2022-09-17T22:46:50.625Z,1.08
2022-09-17T22:49:18.811Z,0.93
2022-09-17T22:51:47.217Z,0.93
2022-09-17T22:54:16.942Z,1.00
2022-09-17T22:56:44.384Z,0.85
2022-09-17T22:59:11.864Z,0.90
2022-09-17T23:01:40.321Z,1.08
2022-09-17T23:04:08.531Z,0.95
2022-09-17T23:06:42.152Z,0.73
2022-09-17T23:09:11.332Z,0.88
2022-09-17T23:11:40.031Z,0.80
2022-09-17T23:14:13.201Z,0.68
2022-09-17T23:16:45.620Z,0.77
2022-09-17T23:19:15.614Z,0.70
2022-09-17T23:21:43.455Z,1.13
2022-09-17T23:24:18.309Z,0.98
2022-09-17T23:26:45.711Z,1.08
2022-09-17T23:29:13.251Z,1.10
2022-09-17T23:31:40.599Z,0.50
2022-09-17T23:34:07.686Z,0.90
2022-09-17T23:36:38.752Z,0.75
2022-09-17T23:39:08.080Z,0.98
2022-09-17T23:41:40.556Z,0.90
2022-09-17T23:44:14.969Z,0.75
2022-09-17T23:46:44.287Z,0.60
2022-09-17T23:49:15.376Z,0.60
2022-09-17T23:51:42.990Z,0.80
2022-09-17T23:54:10.433Z,0.65
2022-09-17T23:56:40.687Z,0.50
2022-09-17T23:59:09.246Z,0.50
